sensor_id;sensor_type;location;lat;lon;timestamp;P1;durP1;ratioP1;P2;durP2;ratioP2
66970;SDS011;53901;51.466;-2.588;2022-10-29T00:01:42;15.05;;;2.63;;
66970;SDS011;53901;51.466;-2.588;2022-10-29T00:04:08;15.60;;;2.35;;
66970;SDS011;53901;51.466;-2.588;2022-10-29T00:06:33;14.32;;;2.30;;
66970;SDS011;53901;51.466;-2.588;2022-10-29T00:08:58;14.43;;;2.15;;
66970;SDS011;53901;51.466;-2.588;2022-10-29T00:11:24;15.05;;;2.20;;
66970;SDS011;53901;51.466;-2.588;2022-10-29T00:13:53;11.10;;;2.03;;
66970;SDS011;53901;51.466;-2.588;2022-10-29T00:16:25;20.13;;;3.83;;
66970;SDS011;53901;51.466;-2.588;2022-10-29T00:18:52;13.40;;;2.28;;
66970;SDS011;53901;51.466;-2.588;2022-10-29T00:21:19;17.98;;;2.58;;
66970;SDS011;53901;51.466;-2.588;2022-10-29T00:23:45;15.13;;;2.40;;
66970;SDS011;53901;51.466;-2.588;2022-10-29T00:26:12;17.05;;;2.30;;
66970;SDS011;53901;51.466;-2.588;2022-10-29T00:28:38;17.08;;;3.03;;
66970;SDS011;53901;51.466;-2.588;2022-10-29T00:31:04;13.07;;;2.13;;
66970;SDS011;53901;51.466;-2.588;2022-10-29T00:33:30;11.57;;;2.20;;
66970;SDS011;53901;51.466;-2.588;2022-10-29T00:35:56;12.20;;;2.13;;
66970;SDS011;53901;51.466;-2.588;2022-10-29T00:38:23;17.42;;;2.30;;
66970;SDS011;53901;51.466;-2.588;2022-10-29T00:40:49;16.20;;;2.47;;
66970;SDS011;53901;51.466;-2.588;2022-10-29T00:43:16;10.25;;;2.20;;
66970;SDS011;53901;51.466;-2.588;2022-10-29T00:45:53;8.63;;;2.00;;
66970;SDS011;53901;51.466;-2.588;2022-10-29T00:48:21;12.05;;;2.15;;
66970;SDS011;53901;51.466;-2.588;2022-10-29T00:50:47;22.30;;;2.80;;
66970;SDS011;53901;51.466;-2.588;2022-10-29T00:53:14;19.80;;;2.80;;
66970;SDS011;53901;51.466;-2.588;2022-10-29T00:55:40;16.67;;;2.78;;
66970;SDS011;53901;51.466;-2.588;2022-10-29T00:58:06;17.80;;;3.67;;
66970;SDS011;53901;51.466;-2.588;2022-10-29T01:00:33;17.60;;;3.58;;
66970;SDS011;53901;51.466;-2.588;2022-10-29T01:02:59;18.63;;;6.85;;
66970;SDS011;53901;51.466;-2.588;2022-10-29T01:05:24;17.50;;;3.20;;
66970;SDS011;53901;51.466;-2.588;2022-10-29T01:07:50;13.10;;;2.25;;
66970;SDS011;53901;51.466;-2.588;2022-10-29T01:10:16;15.82;;;2.53;;
66970;SDS011;53901;51.466;-2.588;2022-10-29T01:13:06;9.55;;;2.30;;
66970;SDS011;53901;51.466;-2.588;2022-10-29T01:15:47;13.68;;;2.85;;
66970;SDS011;53901;51.466;-2.588;2022-10-29T01:18:36;18.67;;;3.13;;
66970;SDS011;53901;51.466;-2.588;2022-10-29T01:24:08;12.60;;;2.13;;
66970;SDS011;53901;51.466;-2.588;2022-10-29T01:32:11;17.90;;;3.60;;
66970;SDS011;53901;51.466;-2.588;2022-10-29T01:34:45;9.05;;;2.63;;
66970;SDS011;53901;51.466;-2.588;2022-10-29T01:40:07;14.10;;;2.92;;
66970;SDS011;53901;51.466;-2.588;2022-10-29T01:42:46;11.13;;;2.50;;
66970;SDS011;53901;51.466;-2.588;2022-10-29T01:45:16;10.48;;;2.00;;
66970;SDS011;53901;51.466;-2.588;2022-10-29T01:47:55;14.80;;;2.35;;
66970;SDS011;53901;51.466;-2.588;2022-10-29T01:50:23;17.58;;;2.70;;
66970;SDS011;53901;51.466;-2.588;2022-10-29T01:52:49;13.70;;;2.65;;
66970;SDS011;53901;51.466;-2.588;2022-10-29T01:55:17;10.77;;;2.28;;
66970;SDS011;53901;51.466;-2.588;2022-10-29T01:57:44;16.00;;;2.78;;
66970;SDS011;53901;51.466;-2.588;2022-10-29T02:00:10;17.95;;;2.78;;
66970;SDS011;53901;51.466;-2.588;2022-10-29T02:05:21;12.00;;;2.50;;
66970;SDS011;53901;51.466;-2.588;2022-10-29T02:13:32;15.02;;;2.97;;
66970;SDS011;53901;51.466;-2.588;2022-10-29T02:16:01;12.68;;;2.83;;
66970;SDS011;53901;51.466;-2.588;2022-10-29T02:18:29;14.52;;;3.03;;
66970;SDS011;53901;51.466;-2.588;2022-10-29T02:20:55;20.85;;;3.58;;
66970;SDS011;53901;51.466;-2.588;2022-10-29T02:23:20;15.10;;;3.40;;
66970;SDS011;53901;51.466;-2.588;2022-10-29T02:25:46;16.45;;;3.65;;
66970;SDS011;53901;51.466;-2.588;2022-10-29T02:28:11;18.23;;;3.30;;
66970;SDS011;53901;51.466;-2.588;2022-10-29T02:30:37;13.07;;;2.90;;
66970;SDS011;53901;51.466;-2.588;2022-10-29T02:33:02;16.40;;;3.25;;
66970;SDS011;53901;51.466;-2.588;2022-10-29T02:35:27;13.80;;;3.08;;
66970;SDS011;53901;51.466;-2.588;2022-10-29T02:37:53;17.77;;;4.40;;
66970;SDS011;53901;51.466;-2.588;2022-10-29T02:40:18;14.88;;;3.65;;
66970;SDS011;53901;51.466;-2.588;2022-10-29T02:42:43;17.45;;;3.53;;
66970;SDS011;53901;51.466;-2.588;2022-10-29T02:45:09;15.02;;;3.10;;
66970;SDS011;53901;51.466;-2.588;2022-10-29T02:47:34;22.75;;;5.32;;
66970;SDS011;53901;51.466;-2.588;2022-10-29T02:50:00;14.30;;;3.55;;
66970;SDS011;53901;51.466;-2.588;2022-10-29T02:52:25;16.20;;;3.75;;
66970;SDS011;53901;51.466;-2.588;2022-10-29T02:54:50;16.40;;;3.60;;
66970;SDS011;53901;51.466;-2.588;2022-10-29T02:57:16;14.60;;;3.85;;
66970;SDS011;53901;51.466;-2.588;2022-10-29T02:59:41;16.38;;;4.03;;
66970;SDS011;53901;51.466;-2.588;2022-10-29T03:02:06;16.40;;;3.70;;
66970;SDS011;53901;51.466;-2.588;2022-10-29T03:04:32;14.30;;;3.83;;
66970;SDS011;53901;51.466;-2.588;2022-10-29T03:06:57;12.63;;;3.78;;
66970;SDS011;53901;51.466;-2.588;2022-10-29T03:09:23;14.98;;;3.63;;
66970;SDS011;53901;51.466;-2.588;2022-10-29T03:11:48;27.48;;;4.70;;
66970;SDS011;53901;51.466;-2.588;2022-10-29T03:14:14;16.80;;;4.88;;
66970;SDS011;53901;51.466;-2.588;2022-10-29T03:16:39;14.50;;;3.80;;
66970;SDS011;53901;51.466;-2.588;2022-10-29T03:19:05;19.40;;;4.30;;
66970;SDS011;53901;51.466;-2.588;2022-10-29T03:21:30;13.70;;;4.05;;
66970;SDS011;53901;51.466;-2.588;2022-10-29T03:23:55;12.52;;;3.85;;
66970;SDS011;53901;51.466;-2.588;2022-10-29T03:26:21;20.83;;;4.72;;
66970;SDS011;53901;51.466;-2.588;2022-10-29T03:28:46;15.05;;;4.47;;
66970;SDS011;53901;51.466;-2.588;2022-10-29T03:31:12;12.98;;;4.03;;
66970;SDS011;53901;51.466;-2.588;2022-10-29T03:33:37;14.90;;;4.20;;
66970;SDS011;53901;51.466;-2.588;2022-10-29T03:36:03;13.63;;;4.07;;
66970;SDS011;53901;51.466;-2.588;2022-10-29T03:38:30;15.85;;;4.82;;
66970;SDS011;53901;51.466;-2.588;2022-10-29T03:40:55;14.20;;;3.90;;
66970;SDS011;53901;51.466;-2.588;2022-10-29T03:43:21;10.93;;;4.55;;
66970;SDS011;53901;51.466;-2.588;2022-10-29T03:45:53;14.10;;;4.43;;
66970;SDS011;53901;51.466;-2.588;2022-10-29T03:48:19;15.60;;;4.55;;
66970;SDS011;53901;51.466;-2.588;2022-10-29T03:50:58;15.73;;;4.53;;
66970;SDS011;53901;51.466;-2.588;2022-10-29T03:53:25;8.00;;;4.38;;
66970;SDS011;53901;51.466;-2.588;2022-10-29T03:55:51;9.57;;;4.20;;
66970;SDS011;53901;51.466;-2.588;2022-10-29T03:58:17;10.85;;;4.32;;
66970;SDS011;53901;51.466;-2.588;2022-10-29T04:00:43;13.80;;;4.47;;
66970;SDS011;53901;51.466;-2.588;2022-10-29T04:03:08;13.48;;;4.95;;
66970;SDS011;53901;51.466;-2.588;2022-10-29T04:05:33;9.93;;;4.38;;
66970;SDS011;53901;51.466;-2.588;2022-10-29T04:07:59;10.88;;;4.32;;
66970;SDS011;53901;51.466;-2.588;2022-10-29T04:10:24;14.23;;;4.63;;
66970;SDS011;53901;51.466;-2.588;2022-10-29T04:12:51;10.93;;;4.43;;
66970;SDS011;53901;51.466;-2.588;2022-10-29T04:15:16;9.50;;;4.15;;
66970;SDS011;53901;51.466;-2.588;2022-10-29T04:17:41;11.85;;;3.75;;
66970;SDS011;53901;51.466;-2.588;2022-10-29T04:20:07;10.10;;;3.83;;
66970;SDS011;53901;51.466;-2.588;2022-10-29T04:22:33;6.07;;;3.00;;
66970;SDS011;53901;51.466;-2.588;2022-10-29T04:24:58;7.68;;;2.92;;
66970;SDS011;53901;51.466;-2.588;2022-10-29T04:27:23;6.60;;;2.90;;
66970;SDS011;53901;51.466;-2.588;2022-10-29T04:29:48;8.32;;;2.75;;
66970;SDS011;53901;51.466;-2.588;2022-10-29T04:32:14;6.95;;;2.10;;
66970;SDS011;53901;51.466;-2.588;2022-10-29T04:34:39;5.82;;;2.40;;
66970;SDS011;53901;51.466;-2.588;2022-10-29T04:37:04;6.32;;;2.60;;
66970;SDS011;53901;51.466;-2.588;2022-10-29T04:39:30;8.57;;;2.75;;
66970;SDS011;53901;51.466;-2.588;2022-10-29T04:41:55;8.10;;;2.60;;
66970;SDS011;53901;51.466;-2.588;2022-10-29T04:44:21;6.65;;;2.33;;
66970;SDS011;53901;51.466;-2.588;2022-10-29T04:46:46;4.95;;;2.47;;
66970;SDS011;53901;51.466;-2.588;2022-10-29T04:49:11;4.63;;;2.33;;
66970;SDS011;53901;51.466;-2.588;2022-10-29T04:51:37;7.70;;;2.35;;
66970;SDS011;53901;51.466;-2.588;2022-10-29T04:54:02;5.80;;;2.13;;
66970;SDS011;53901;51.466;-2.588;2022-10-29T04:56:28;4.95;;;2.65;;
66970;SDS011;53901;51.466;-2.588;2022-10-29T04:58:54;9.50;;;2.75;;
66970;SDS011;53901;51.466;-2.588;2022-10-29T05:01:20;9.18;;;2.70;;
66970;SDS011;53901;51.466;-2.588;2022-10-29T05:03:45;6.30;;;2.20;;
66970;SDS011;53901;51.466;-2.588;2022-10-29T05:06:11;13.45;;;2.40;;
66970;SDS011;53901;51.466;-2.588;2022-10-29T05:08:36;14.07;;;2.55;;
66970;SDS011;53901;51.466;-2.588;2022-10-29T05:11:02;8.30;;;2.20;;
66970;SDS011;53901;51.466;-2.588;2022-10-29T05:13:28;7.25;;;2.33;;
66970;SDS011;53901;51.466;-2.588;2022-10-29T05:15:54;7.25;;;2.28;;
66970;SDS011;53901;51.466;-2.588;2022-10-29T05:18:19;7.22;;;2.33;;
66970;SDS011;53901;51.466;-2.588;2022-10-29T05:20:45;8.88;;;2.50;;
66970;SDS011;53901;51.466;-2.588;2022-10-29T05:23:10;9.52;;;3.15;;
66970;SDS011;53901;51.466;-2.588;2022-10-29T05:25:37;8.13;;;2.20;;
66970;SDS011;53901;51.466;-2.588;2022-10-29T05:28:04;7.72;;;2.65;;
66970;SDS011;53901;51.466;-2.588;2022-10-29T05:30:31;10.05;;;2.40;;
66970;SDS011;53901;51.466;-2.588;2022-10-29T05:32:57;9.40;;;3.25;;
66970;SDS011;53901;51.466;-2.588;2022-10-29T05:35:22;10.93;;;3.13;;
66970;SDS011;53901;51.466;-2.588;2022-10-29T05:37:51;9.80;;;2.83;;
66970;SDS011;53901;51.466;-2.588;2022-10-29T05:40:18;11.65;;;3.67;;
66970;SDS011;53901;51.466;-2.588;2022-10-29T05:42:44;10.90;;;3.58;;
66970;SDS011;53901;51.466;-2.588;2022-10-29T05:45:10;12.40;;;4.03;;
66970;SDS011;53901;51.466;-2.588;2022-10-29T05:47:35;9.93;;;4.03;;
66970;SDS011;53901;51.466;-2.588;2022-10-29T05:50:01;10.85;;;3.88;;
66970;SDS011;53901;51.466;-2.588;2022-10-29T05:52:26;12.65;;;4.50;;
66970;SDS011;53901;51.466;-2.588;2022-10-29T05:54:51;9.48;;;3.25;;
66970;SDS011;53901;51.466;-2.588;2022-10-29T05:57:17;14.93;;;4.70;;
66970;SDS011;53901;51.466;-2.588;2022-10-29T05:59:44;12.23;;;5.25;;
66970;SDS011;53901;51.466;-2.588;2022-10-29T06:02:10;15.65;;;5.35;;
66970;SDS011;53901;51.466;-2.588;2022-10-29T06:04:35;12.07;;;5.43;;
66970;SDS011;53901;51.466;-2.588;2022-10-29T06:07:00;15.98;;;6.05;;
66970;SDS011;53901;51.466;-2.588;2022-10-29T06:09:26;15.77;;;6.30;;
66970;SDS011;53901;51.466;-2.588;2022-10-29T06:11:51;15.82;;;6.53;;
66970;SDS011;53901;51.466;-2.588;2022-10-29T06:14:18;16.23;;;7.18;;
66970;SDS011;53901;51.466;-2.588;2022-10-29T06:16:44;16.35;;;7.70;;
66970;SDS011;53901;51.466;-2.588;2022-10-29T06:19:09;20.98;;;8.02;;
66970;SDS011;53901;51.466;-2.588;2022-10-29T06:21:34;22.23;;;8.10;;
66970;SDS011;53901;51.466;-2.588;2022-10-29T06:24:00;21.23;;;8.30;;
66970;SDS011;53901;51.466;-2.588;2022-10-29T06:26:25;28.30;;;9.43;;
66970;SDS011;53901;51.466;-2.588;2022-10-29T06:28:51;26.60;;;12.07;;
66970;SDS011;53901;51.466;-2.588;2022-10-29T06:31:16;25.33;;;9.55;;
66970;SDS011;53901;51.466;-2.588;2022-10-29T06:33:41;23.40;;;10.00;;
66970;SDS011;53901;51.466;-2.588;2022-10-29T06:36:07;23.33;;;9.30;;
66970;SDS011;53901;51.466;-2.588;2022-10-29T06:38:32;25.70;;;9.63;;
66970;SDS011;53901;51.466;-2.588;2022-10-29T06:40:58;23.20;;;9.93;;
66970;SDS011;53901;51.466;-2.588;2022-10-29T06:43:23;24.42;;;10.32;;
66970;SDS011;53901;51.466;-2.588;2022-10-29T06:45:48;19.67;;;9.23;;
66970;SDS011;53901;51.466;-2.588;2022-10-29T06:48:14;21.30;;;9.38;;
66970;SDS011;53901;51.466;-2.588;2022-10-29T06:50:39;24.83;;;9.68;;
66970;SDS011;53901;51.466;-2.588;2022-10-29T06:53:06;19.33;;;9.15;;
66970;SDS011;53901;51.466;-2.588;2022-10-29T06:55:33;21.95;;;9.43;;
66970;SDS011;53901;51.466;-2.588;2022-10-29T06:58:00;18.77;;;9.45;;
66970;SDS011;53901;51.466;-2.588;2022-10-29T07:00:27;24.67;;;9.65;;
66970;SDS011;53901;51.466;-2.588;2022-10-29T07:02:54;24.45;;;9.63;;
66970;SDS011;53901;51.466;-2.588;2022-10-29T07:05:19;25.65;;;9.40;;
66970;SDS011;53901;51.466;-2.588;2022-10-29T07:07:45;19.05;;;9.73;;
66970;SDS011;53901;51.466;-2.588;2022-10-29T07:10:10;25.95;;;10.15;;
66970;SDS011;53901;51.466;-2.588;2022-10-29T07:12:39;26.58;;;9.90;;
66970;SDS011;53901;51.466;-2.588;2022-10-29T07:15:05;24.50;;;10.25;;
66970;SDS011;53901;51.466;-2.588;2022-10-29T07:17:31;22.23;;;9.70;;
66970;SDS011;53901;51.466;-2.588;2022-10-29T07:19:56;28.25;;;9.73;;
66970;SDS011;53901;51.466;-2.588;2022-10-29T07:22:22;25.90;;;10.43;;
66970;SDS011;53901;51.466;-2.588;2022-10-29T07:24:47;25.40;;;9.25;;
66970;SDS011;53901;51.466;-2.588;2022-10-29T07:27:12;24.70;;;8.32;;
66970;SDS011;53901;51.466;-2.588;2022-10-29T07:29:38;24.25;;;6.15;;
66970;SDS011;53901;51.466;-2.588;2022-10-29T07:32:03;34.17;;;7.05;;
66970;SDS011;53901;51.466;-2.588;2022-10-29T07:34:29;16.10;;;6.43;;
66970;SDS011;53901;51.466;-2.588;2022-10-29T07:36:54;15.43;;;5.20;;
66970;SDS011;53901;51.466;-2.588;2022-10-29T07:39:20;15.35;;;4.82;;
66970;SDS011;53901;51.466;-2.588;2022-10-29T07:41:45;17.65;;;4.65;;
66970;SDS011;53901;51.466;-2.588;2022-10-29T07:44:10;13.85;;;4.80;;
66970;SDS011;53901;51.466;-2.588;2022-10-29T07:46:35;19.52;;;4.70;;
66970;SDS011;53901;51.466;-2.588;2022-10-29T07:49:01;15.55;;;4.47;;
66970;SDS011;53901;51.466;-2.588;2022-10-29T07:51:26;14.25;;;4.78;;
66970;SDS011;53901;51.466;-2.588;2022-10-29T07:53:52;19.55;;;4.10;;
66970;SDS011;53901;51.466;-2.588;2022-10-29T07:56:17;14.90;;;4.45;;
66970;SDS011;53901;51.466;-2.588;2022-10-29T07:58:42;17.00;;;4.00;;
66970;SDS011;53901;51.466;-2.588;2022-10-29T08:01:08;14.45;;;4.65;;
66970;SDS011;53901;51.466;-2.588;2022-10-29T08:03:33;17.17;;;4.60;;
66970;SDS011;53901;51.466;-2.588;2022-10-29T08:05:58;14.35;;;3.85;;
66970;SDS011;53901;51.466;-2.588;2022-10-29T08:08:24;16.27;;;3.95;;
66970;SDS011;53901;51.466;-2.588;2022-10-29T08:10:50;18.40;;;3.67;;
66970;SDS011;53901;51.466;-2.588;2022-10-29T08:13:15;15.55;;;3.80;;
66970;SDS011;53901;51.466;-2.588;2022-10-29T08:15:41;13.20;;;3.75;;
66970;SDS011;53901;51.466;-2.588;2022-10-29T08:18:10;23.75;;;4.30;;
66970;SDS011;53901;51.466;-2.588;2022-10-29T08:20:39;20.23;;;4.03;;
66970;SDS011;53901;51.466;-2.588;2022-10-29T08:23:05;14.63;;;3.70;;
66970;SDS011;53901;51.466;-2.588;2022-10-29T08:25:30;15.48;;;3.92;;
66970;SDS011;53901;51.466;-2.588;2022-10-29T08:27:59;11.18;;;3.78;;
66970;SDS011;53901;51.466;-2.588;2022-10-29T08:30:26;17.70;;;3.63;;
66970;SDS011;53901;51.466;-2.588;2022-10-29T08:32:51;12.93;;;3.63;;
66970;SDS011;53901;51.466;-2.588;2022-10-29T08:35:17;15.48;;;3.65;;
66970;SDS011;53901;51.466;-2.588;2022-10-29T08:37:42;15.30;;;4.20;;
66970;SDS011;53901;51.466;-2.588;2022-10-29T08:40:18;17.60;;;3.83;;
66970;SDS011;53901;51.466;-2.588;2022-10-29T08:43:14;15.25;;;3.53;;
66970;SDS011;53901;51.466;-2.588;2022-10-29T08:45:46;12.60;;;3.30;;
66970;SDS011;53901;51.466;-2.588;2022-10-29T08:48:19;18.23;;;4.60;;
66970;SDS011;53901;51.466;-2.588;2022-10-29T08:50:52;23.05;;;3.80;;
66970;SDS011;53901;51.466;-2.588;2022-10-29T08:53:24;14.05;;;3.67;;
66970;SDS011;53901;51.466;-2.588;2022-10-29T08:55:56;15.02;;;3.85;;
66970;SDS011;53901;51.466;-2.588;2022-10-29T09:01:22;16.42;;;3.40;;
66970;SDS011;53901;51.466;-2.588;2022-10-29T09:03:48;13.45;;;3.42;;
66970;SDS011;53901;51.466;-2.588;2022-10-29T09:11:58;13.15;;;3.40;;
66970;SDS011;53901;51.466;-2.588;2022-10-29T09:14:33;13.45;;;3.38;;
66970;SDS011;53901;51.466;-2.588;2022-10-29T09:22:12;25.60;;;8.15;;
66970;SDS011;53901;51.466;-2.588;2022-10-29T09:30:19;15.30;;;3.63;;
66970;SDS011;53901;51.466;-2.588;2022-10-29T09:35:15;15.38;;;3.13;;
66970;SDS011;53901;51.466;-2.588;2022-10-29T09:37:52;13.90;;;4.00;;
66970;SDS011;53901;51.466;-2.588;2022-10-29T09:40:38;19.83;;;3.20;;
66970;SDS011;53901;51.466;-2.588;2022-10-29T09:43:05;15.27;;;3.70;;
66970;SDS011;53901;51.466;-2.588;2022-10-29T09:46:00;16.17;;;3.97;;
66970;SDS011;53901;51.466;-2.588;2022-10-29T09:54:13;19.52;;;3.30;;
66970;SDS011;53901;51.466;-2.588;2022-10-29T09:56:39;18.15;;;3.72;;
66970;SDS011;53901;51.466;-2.588;2022-10-29T09:59:28;17.27;;;3.30;;
66970;SDS011;53901;51.466;-2.588;2022-10-29T10:01:53;12.80;;;2.70;;
66970;SDS011;53901;51.466;-2.588;2022-10-29T10:04:22;16.52;;;3.38;;
66970;SDS011;53901;51.466;-2.588;2022-10-29T10:09:55;21.45;;;3.70;;
66970;SDS011;53901;51.466;-2.588;2022-10-29T10:12:28;14.30;;;3.40;;
66970;SDS011;53901;51.466;-2.588;2022-10-29T10:15:03;12.85;;;3.00;;
66970;SDS011;53901;51.466;-2.588;2022-10-29T10:20:28;12.05;;;2.92;;
66970;SDS011;53901;51.466;-2.588;2022-10-29T10:22:59;15.95;;;3.20;;
66970;SDS011;53901;51.466;-2.588;2022-10-29T10:25:37;13.00;;;3.00;;
66970;SDS011;53901;51.466;-2.588;2022-10-29T10:28:13;17.17;;;4.63;;
66970;SDS011;53901;51.466;-2.588;2022-10-29T10:30:43;10.27;;;2.17;;
66970;SDS011;53901;51.466;-2.588;2022-10-29T10:33:09;15.30;;;3.78;;
66970;SDS011;53901;51.466;-2.588;2022-10-29T10:35:50;18.23;;;2.63;;
66970;SDS011;53901;51.466;-2.588;2022-10-29T10:38:16;13.25;;;3.08;;
66970;SDS011;53901;51.466;-2.588;2022-10-29T10:40:41;12.23;;;3.05;;
66970;SDS011;53901;51.466;-2.588;2022-10-29T10:43:16;13.50;;;3.78;;
66970;SDS011;53901;51.466;-2.588;2022-10-29T10:45:44;18.23;;;4.90;;
66970;SDS011;53901;51.466;-2.588;2022-10-29T10:48:23;18.60;;;5.95;;
66970;SDS011;53901;51.466;-2.588;2022-10-29T10:50:50;28.67;;;11.48;;
66970;SDS011;53901;51.466;-2.588;2022-10-29T10:53:18;12.48;;;2.80;;
66970;SDS011;53901;51.466;-2.588;2022-10-29T10:55:49;13.00;;;2.55;;
66970;SDS011;53901;51.466;-2.588;2022-10-29T10:58:18;11.93;;;2.80;;
66970;SDS011;53901;51.466;-2.588;2022-10-29T11:00:50;15.40;;;2.58;;
66970;SDS011;53901;51.466;-2.588;2022-10-29T11:03:20;9.32;;;2.72;;
66970;SDS011;53901;51.466;-2.588;2022-10-29T11:06:07;10.38;;;2.55;;
66970;SDS011;53901;51.466;-2.588;2022-10-29T11:08:47;70.95;;;6.60;;
66970;SDS011;53901;51.466;-2.588;2022-10-29T11:11:18;25.55;;;5.35;;
66970;SDS011;53901;51.466;-2.588;2022-10-29T11:13:47;48.63;;;4.80;;
66970;SDS011;53901;51.466;-2.588;2022-10-29T11:18:49;28.27;;;3.40;;
66970;SDS011;53901;51.466;-2.588;2022-10-29T11:26:46;100.30;;;5.18;;
66970;SDS011;53901;51.466;-2.588;2022-10-29T11:31:58;70.40;;;9.27;;
66970;SDS011;53901;51.466;-2.588;2022-10-29T11:42:42;12.13;;;2.85;;
66970;SDS011;53901;51.466;-2.588;2022-10-29T11:45:19;9.75;;;2.40;;
66970;SDS011;53901;51.466;-2.588;2022-10-29T11:47:59;10.07;;;2.40;;
66970;SDS011;53901;51.466;-2.588;2022-10-29T11:59:12;13.10;;;2.70;;
66970;SDS011;53901;51.466;-2.588;2022-10-29T12:05:02;13.75;;;3.30;;
66970;SDS011;53901;51.466;-2.588;2022-10-29T12:10:30;13.88;;;2.83;;
66970;SDS011;53901;51.466;-2.588;2022-10-29T12:13:14;7.53;;;2.33;;
66970;SDS011;53901;51.466;-2.588;2022-10-29T12:18:34;9.88;;;3.15;;
66970;SDS011;53901;51.466;-2.588;2022-10-29T12:21:12;16.55;;;2.85;;
66970;SDS011;53901;51.466;-2.588;2022-10-29T12:23:56;12.88;;;2.63;;
66970;SDS011;53901;51.466;-2.588;2022-10-29T12:26:28;10.52;;;2.70;;
66970;SDS011;53901;51.466;-2.588;2022-10-29T12:29:19;10.73;;;2.63;;
66970;SDS011;53901;51.466;-2.588;2022-10-29T12:32:17;10.02;;;2.38;;
66970;SDS011;53901;51.466;-2.588;2022-10-29T12:35:13;13.57;;;3.33;;
66970;SDS011;53901;51.466;-2.588;2022-10-29T12:42:44;14.40;;;3.45;;
66970;SDS011;53901;51.466;-2.588;2022-10-29T12:45:18;11.77;;;3.28;;
66970;SDS011;53901;51.466;-2.588;2022-10-29T12:47:52;11.10;;;2.80;;
66970;SDS011;53901;51.466;-2.588;2022-10-29T12:55:30;10.18;;;2.75;;
66970;SDS011;53901;51.466;-2.588;2022-10-29T12:57:56;11.13;;;3.08;;
66970;SDS011;53901;51.466;-2.588;2022-10-29T13:02:47;20.73;;;2.17;;
66970;SDS011;53901;51.466;-2.588;2022-10-29T13:05:17;9.15;;;2.10;;
66970;SDS011;53901;51.466;-2.588;2022-10-29T13:15:19;14.85;;;3.40;;
66970;SDS011;53901;51.466;-2.588;2022-10-29T13:17:46;8.65;;;2.55;;
66970;SDS011;53901;51.466;-2.588;2022-10-29T13:20:28;19.95;;;5.38;;
66970;SDS011;53901;51.466;-2.588;2022-10-29T13:22:59;14.07;;;5.87;;
66970;SDS011;53901;51.466;-2.588;2022-10-29T13:30:33;8.45;;;2.75;;
66970;SDS011;53901;51.466;-2.588;2022-10-29T13:33:00;11.98;;;4.57;;
66970;SDS011;53901;51.466;-2.588;2022-10-29T13:42:45;16.08;;;4.18;;
66970;SDS011;53901;51.466;-2.588;2022-10-29T13:45:18;13.02;;;3.33;;
66970;SDS011;53901;51.466;-2.588;2022-10-29T13:47:43;13.15;;;3.85;;
66970;SDS011;53901;51.466;-2.588;2022-10-29T13:50:09;13.43;;;4.53;;
66970;SDS011;53901;51.466;-2.588;2022-10-29T13:52:35;13.90;;;3.85;;
66970;SDS011;53901;51.466;-2.588;2022-10-29T13:55:05;14.50;;;3.42;;
66970;SDS011;53901;51.466;-2.588;2022-10-29T13:57:42;13.18;;;3.90;;
66970;SDS011;53901;51.466;-2.588;2022-10-29T14:00:28;16.23;;;3.70;;
66970;SDS011;53901;51.466;-2.588;2022-10-29T14:06:14;15.18;;;5.93;;
66970;SDS011;53901;51.466;-2.588;2022-10-29T14:10:50;11.65;;;3.30;;
66970;SDS011;53901;51.466;-2.588;2022-10-29T14:13:30;12.57;;;3.55;;
66970;SDS011;53901;51.466;-2.588;2022-10-29T14:18:30;13.05;;;3.10;;
66970;SDS011;53901;51.466;-2.588;2022-10-29T14:20:57;12.77;;;4.10;;
66970;SDS011;53901;51.466;-2.588;2022-10-29T14:23:24;11.77;;;3.25;;
66970;SDS011;53901;51.466;-2.588;2022-10-29T14:25:51;11.98;;;3.20;;
66970;SDS011;53901;51.466;-2.588;2022-10-29T14:30:44;15.68;;;3.05;;
66970;SDS011;53901;51.466;-2.588;2022-10-29T14:33:16;16.42;;;4.28;;
66970;SDS011;53901;51.466;-2.588;2022-10-29T14:35:42;16.13;;;3.92;;
66970;SDS011;53901;51.466;-2.588;2022-10-29T14:38:08;12.77;;;3.90;;
66970;SDS011;53901;51.466;-2.588;2022-10-29T14:40:36;10.93;;;3.58;;
66970;SDS011;53901;51.466;-2.588;2022-10-29T14:43:01;13.00;;;3.58;;
66970;SDS011;53901;51.466;-2.588;2022-10-29T14:45:27;17.73;;;4.35;;
66970;SDS011;53901;51.466;-2.588;2022-10-29T14:47:55;17.25;;;4.03;;
66970;SDS011;53901;51.466;-2.588;2022-10-29T14:50:25;19.08;;;3.70;;
66970;SDS011;53901;51.466;-2.588;2022-10-29T14:52:53;17.50;;;3.67;;
66970;SDS011;53901;51.466;-2.588;2022-10-29T14:55:27;12.93;;;3.58;;
66970;SDS011;53901;51.466;-2.588;2022-10-29T14:57:59;12.70;;;3.55;;
66970;SDS011;53901;51.466;-2.588;2022-10-29T15:00:27;11.20;;;3.00;;
66970;SDS011;53901;51.466;-2.588;2022-10-29T15:02:55;13.95;;;3.33;;
66970;SDS011;53901;51.466;-2.588;2022-10-29T15:05:22;14.00;;;4.13;;
66970;SDS011;53901;51.466;-2.588;2022-10-29T15:10:54;13.23;;;2.80;;
66970;SDS011;53901;51.466;-2.588;2022-10-29T15:13:22;18.25;;;3.45;;
66970;SDS011;53901;51.466;-2.588;2022-10-29T15:16:17;12.07;;;2.80;;
66970;SDS011;53901;51.466;-2.588;2022-10-29T15:21:09;11.32;;;2.75;;
66970;SDS011;53901;51.466;-2.588;2022-10-29T15:23:35;13.63;;;3.20;;
66970;SDS011;53901;51.466;-2.588;2022-10-29T15:26:07;15.60;;;3.25;;
66970;SDS011;53901;51.466;-2.588;2022-10-29T15:28:36;8.30;;;3.00;;
66970;SDS011;53901;51.466;-2.588;2022-10-29T15:31:03;14.13;;;3.10;;
66970;SDS011;53901;51.466;-2.588;2022-10-29T15:33:29;13.13;;;3.17;;
66970;SDS011;53901;51.466;-2.588;2022-10-29T15:35:56;17.25;;;2.83;;
66970;SDS011;53901;51.466;-2.588;2022-10-29T15:48:49;13.38;;;3.08;;
66970;SDS011;53901;51.466;-2.588;2022-10-29T15:51:15;11.55;;;3.00;;
66970;SDS011;53901;51.466;-2.588;2022-10-29T15:53:40;7.25;;;2.10;;
66970;SDS011;53901;51.466;-2.588;2022-10-29T15:56:09;14.00;;;3.28;;
66970;SDS011;53901;51.466;-2.588;2022-10-29T15:58:35;12.50;;;2.60;;
66970;SDS011;53901;51.466;-2.588;2022-10-29T16:01:01;11.00;;;2.60;;
66970;SDS011;53901;51.466;-2.588;2022-10-29T16:03:26;12.35;;;2.20;;
66970;SDS011;53901;51.466;-2.588;2022-10-29T16:05:59;18.85;;;2.95;;
66970;SDS011;53901;51.466;-2.588;2022-10-29T16:08:30;13.07;;;2.67;;
66970;SDS011;53901;51.466;-2.588;2022-10-29T16:13:38;12.65;;;4.15;;
66970;SDS011;53901;51.466;-2.588;2022-10-29T16:16:04;10.07;;;3.10;;
66970;SDS011;53901;51.466;-2.588;2022-10-29T16:18:30;15.02;;;2.83;;
66970;SDS011;53901;51.466;-2.588;2022-10-29T16:20:57;17.00;;;3.85;;
66970;SDS011;53901;51.466;-2.588;2022-10-29T16:23:24;17.73;;;3.72;;
66970;SDS011;53901;51.466;-2.588;2022-10-29T16:25:49;20.63;;;3.65;;
66970;SDS011;53901;51.466;-2.588;2022-10-29T16:28:15;14.60;;;2.85;;
66970;SDS011;53901;51.466;-2.588;2022-10-29T16:30:40;15.75;;;2.85;;
66970;SDS011;53901;51.466;-2.588;2022-10-29T16:33:08;13.75;;;3.22;;
66970;SDS011;53901;51.466;-2.588;2022-10-29T16:35:34;15.90;;;3.63;;
66970;SDS011;53901;51.466;-2.588;2022-10-29T16:37:59;18.23;;;2.72;;
66970;SDS011;53901;51.466;-2.588;2022-10-29T16:40:25;18.85;;;3.10;;
66970;SDS011;53901;51.466;-2.588;2022-10-29T16:42:51;13.02;;;3.35;;
66970;SDS011;53901;51.466;-2.588;2022-10-29T16:45:22;13.60;;;3.20;;
66970;SDS011;53901;51.466;-2.588;2022-10-29T16:47:49;11.30;;;2.38;;
66970;SDS011;53901;51.466;-2.588;2022-10-29T16:50:17;16.23;;;3.58;;
66970;SDS011;53901;51.466;-2.588;2022-10-29T16:52:44;15.88;;;2.88;;
66970;SDS011;53901;51.466;-2.588;2022-10-29T16:55:09;16.83;;;3.72;;
66970;SDS011;53901;51.466;-2.588;2022-10-29T16:57:35;20.70;;;3.38;;
66970;SDS011;53901;51.466;-2.588;2022-10-29T17:00:01;16.00;;;2.88;;
66970;SDS011;53901;51.466;-2.588;2022-10-29T17:02:28;16.95;;;3.60;;